This is the latest recevied weather packets stored in our database for station/object GW1482. If no packets are shown the sender has not sent any weather packets the latest 10 day(s).
| Time | Temp. | Humidity | Pressure | Rain* | Wind** | Luminosity | Snow |
|---|---|---|---|---|---|---|---|
| 1777887571 | 6.11° C | 86% | 1000.3 hPa | 0 mm | - | - | - |
| 1777886132 | 5.56° C | 98% | 1000.3 hPa | 0 mm | - | - | - |
| 1777885758 | 5.56° C | 98% | 1000.6 hPa | 0 mm | - | - | - |
| 1777882552 | 5.56° C | 97% | 1000.6 hPa | 0 mm | - | - | - |
| 1777881454 | 6.11° C | 96% | 1000.6 hPa | 0 mm | - | - | - |
| 1777878592 | 6.67° C | 90% | 1001 hPa | 0 mm | - | - | - |
| 1777877513 | 6.11° C | 89% | 1001.3 hPa | 0 mm | - | - | - |
| 1777877122 | 6.11° C | 88% | 1001.6 hPa | 0 mm | - | - | - |
| 1777873517 | 8.89° C | 56% | 1002 hPa | 0 mm | - | - | - |
| 1777872802 | 8.89° C | 53% | 1001.3 hPa | 0 mm | - | - | - |
| 1777872104 | 8.33° C | 54% | 1001.6 hPa | 0 mm | - | - | - |
| 1777870313 | 6.67° C | 70% | 1001.6 hPa | 0 mm | - | - | - |
| 1777868502 | 6.67° C | 69% | 1001.3 hPa | 0 mm | - | - | - |
| 1777867790 | 6.67° C | 69% | 1001.6 hPa | 0 mm | - | - | - |
| 1777865993 | 7.22° C | 68% | 1001.3 hPa | 0 mm | - | - | - |
| 1777864885 | 7.22° C | 65% | 1001.3 hPa | 0 mm | - | - | - |
| 1777861667 | 8.33° C | 62% | 1001.3 hPa | 0 mm | - | - | - |
| 1777860233 | 8.89° C | 59% | 1001.3 hPa | 0 mm | - | - | - |
| 1777859131 | 8.89° C | 57% | 1001.3 hPa | 0 mm | - | - | - |
| 1777855531 | 9.44° C | 53% | 1001 hPa | 0 mm | - | - | - |
| 1777854817 | 9.44° C | 50% | 1001 hPa | 0 mm | - | - | - |
| 1777847952 | 12.22° C | 38% | 1001.3 hPa | 0 mm | - | - | - |
| 1777847631 | 12.22° C | 42% | 1001.3 hPa | 0 mm | - | - | - |
| 1777847247 | 12.22° C | 36% | 1001 hPa | 0 mm | - | - | - |
| 1777845814 | 13.33° C | 35% | 1001 hPa | 0 mm | - | - | - |
* Rain since midnight (hover to see other rain measurements)
** Current wind speed in m/s (hover to see current wind gust speed)